Time;durP1;ratioP1;P1;durP2;ratioP2;P2;SDS_P1;SDS_P2;PMS_P1;PMS_P2;Temp;Humidity;BMP_temperature;BMP_pressure;BME280_temperature;BME280_humidity;BME280_pressure;Samples;Min_cycle;Max_cycle;Signal;HPM_P1;HPM_P2
2021/03/29 00:02:11;;;;;;;5.00;4.00;;;;;;;2.67;53.91;101123.34;5001637;28;20034;-56
2021/03/29 00:04:37;;;;;;;9.27;4.55;;;;;;;2.64;53.68;101110.47;4997155;28;20026;-56
2021/03/29 00:07:05;;;;;;;7.32;4.47;;;;;;;2.40;53.53;101089.19;5006907;28;20042;-56
2021/03/29 00:09:34;;;;;;;7.85;4.75;;;;;;;2.12;53.34;101066.91;5006818;28;20030;-55
2021/03/29 00:12:06;;;;;;;8.90;4.75;;;;;;;2.18;53.19;101059.47;5006820;28;20089;-55
2021/03/29 00:14:32;;;;;;;;;;;;;;;2.37;54.65;101121.47;5007312;28;20033;-55
2021/03/29 00:16:58;;;;;;;10.68;5.00;;;;;;;2.27;53.96;101132.16;5006633;28;19917;-55
2021/03/29 00:19:27;;;;;;;7.78;4.80;;;;;;;2.32;54.16;101148.53;5006833;28;20026;-55
2021/03/29 00:21:53;;;;;;;8.95;4.63;;;;;;;2.46;54.20;101126.91;5006714;28;20057;-55
2021/03/29 00:24:19;;;;;;;8.95;4.53;;;;;;;2.37;53.64;101124.88;5006627;28;20030;-56
2021/03/29 00:26:46;;;;;;;7.55;4.57;;;;;;;2.42;53.70;101130.16;5006634;28;20034;-56
2021/03/29 00:29:12;;;;;;;7.20;4.07;;;;;;;2.33;53.55;101132.41;5006512;28;20027;-55
2021/03/29 00:31:38;;;;;;;7.15;4.10;;;;;;;2.38;53.74;101136.88;5006533;28;20030;-55
2021/03/29 00:34:06;;;;;;;10.63;4.85;;;;;;;2.36;53.46;101142.72;5006351;28;20034;-55
2021/03/29 00:36:32;;;;;;;8.98;4.45;;;;;;;2.03;54.17;101144.09;5006436;28;20022;-56
2021/03/29 00:38:59;;;;;;;8.18;4.40;;;;;;;2.09;54.18;101147.72;5006306;28;20330;-56
2021/03/29 00:41:26;;;;;;;5.28;4.22;;;;;;;2.06;54.09;101148.47;5006404;28;20026;-56
2021/03/29 00:43:53;;;;;;;7.55;4.45;;;;;;;2.07;54.37;101155.31;5006349;28;20046;-56
2021/03/29 00:46:20;;;;;;;6.78;4.13;;;;;;;2.12;54.16;101148.69;5006265;28;20030;-56
2021/03/29 00:48:49;;;;;;;8.07;4.00;;;;;;;1.98;53.64;101160.97;5005809;28;20026;-57
2021/03/29 00:51:24;;;;;;;10.85;4.35;;;;;;;1.68;55.17;101158.09;5006137;28;20073;-55
2021/03/29 00:53:53;;;;;;;5.45;4.50;;;;;;;1.70;54.89;101159.91;5005977;28;20033;-56
2021/03/29 00:56:20;;;;;;;8.77;4.13;;;;;;;1.80;54.70;101156.03;5006041;28;20343;-55
2021/03/29 00:58:48;;;;;;;8.27;4.32;;;;;;;1.42;54.84;101106.91;5006012;28;20030;-55
2021/03/29 01:01:32;;;;;;;7.93;4.70;;;;;;;1.80;54.69;101181.56;5004337;28;20207;-55
2021/03/29 01:04:00;;;;;;;7.63;4.03;;;;;;;1.89;54.63;101175.94;4999955;28;20313;-56
2021/03/29 01:06:34;;;;;;;7.45;4.15;;;;;;;1.86;54.75;101156.25;5005765;28;20023;-56
2021/03/29 01:09:24;;;;;;;6.57;4.10;;;;;;;1.66;55.14;101168.25;4988251;28;20023;-55
2021/03/29 01:12:03;;;;;;;12.18;4.53;;;;;;;1.48;55.02;101090.94;4986399;28;20046;-55
2021/03/29 01:14:33;;;;;;;6.38;4.50;;;;;;;1.83;55.17;101168.91;4986161;28;20054;-55
2021/03/29 01:17:05;;;;;;;6.68;4.25;;;;;;;1.43;55.59;101097.59;4986197;28;20033;-55
2021/03/29 01:19:34;;;;;;;;;;;;;;;1.86;55.23;101176.69;5003945;28;20033;-55
2021/03/29 01:22:08;;;;;;;6.90;3.97;;;;;;;1.79;55.07;101169.59;5005588;28;20138;-55
2021/03/29 01:24:44;;;;;;;8.40;4.15;;;;;;;1.42;55.27;101109.44;5005472;28;20311;-55
2021/03/29 01:27:13;;;;;;;7.00;4.20;;;;;;;1.35;55.13;101104.91;5005504;28;20049;-55
2021/03/29 01:29:39;;;;;;;5.80;4.00;;;;;;;1.76;55.05;101179.69;5005333;28;20033;-54
2021/03/29 01:32:06;;;;;;;6.60;4.05;;;;;;;1.61;55.19;101185.09;5005460;28;20037;-55
2021/03/29 01:34:37;;;;;;;6.88;3.92;;;;;;;1.81;55.34;101180.75;5005005;28;20026;-55
2021/03/29 01:37:04;;;;;;;9.50;4.05;;;;;;;1.54;55.55;101180.56;5005331;28;20196;-55
2021/03/29 01:39:31;;;;;;;9.65;3.75;;;;;;;1.65;55.32;101193.72;5005248;28;20034;-56
2021/03/29 01:41:58;;;;;;;8.50;4.20;;;;;;;1.40;55.38;101192.75;4987877;28;20097;-56
2021/03/29 01:44:25;;;;;;;6.68;4.00;;;;;;;1.44;55.62;101197.19;5005205;28;20030;-55
2021/03/29 01:46:51;;;;;;;11.15;4.30;;;;;;;1.43;55.24;101208.19;5005092;28;20093;-55
2021/03/29 01:49:19;;;;;;;6.93;4.03;;;;;;;1.27;56.01;101206.72;5004971;28;20076;-55
2021/03/29 01:51:45;;;;;;;5.30;3.90;;;;;;;1.48;55.80;101206.72;5005036;28;20033;-55
2021/03/29 01:54:12;;;;;;;7.70;4.22;;;;;;;1.38;55.91;101190.16;5004628;28;20100;-55
2021/03/29 01:56:38;;;;;;;5.18;3.60;;;;;;;1.30;55.72;101195.75;5005008;28;20038;-55
2021/03/29 01:59:04;;;;;;;5.68;4.00;;;;;;;1.42;55.80;101203.88;5004555;28;20041;-55
2021/03/29 02:01:30;;;;;;;7.20;3.97;;;;;;;1.33;55.33;101201.84;5003002;28;20023;-55
2021/03/29 02:03:57;;;;;;;7.80;3.95;;;;;;;1.32;55.86;101191.56;4994938;28;20098;-56
2021/03/29 02:06:23;;;;;;;6.07;4.28;;;;;;;1.33;55.91;101204.41;4992432;28;20319;-56
2021/03/29 02:08:49;;;;;;;7.75;4.30;;;;;;;1.25;55.79;101204.91;4985094;28;20045;-56
2021/03/29 02:11:16;;;;;;;9.63;4.40;;;;;;;0.96;55.70;101156.97;4987182;28;20048;-56
2021/03/29 02:13:49;;;;;;;6.03;3.90;;;;;;;1.28;55.70;101213.53;4985261;28;20106;-56
2021/03/29 02:16:17;;;;;;;7.25;4.45;;;;;;;1.31;55.62;101223.00;5002617;28;20117;-56
2021/03/29 02:18:50;;;;;;;9.40;4.15;;;;;;;1.07;55.41;101157.41;4994211;28;20030;-56
2021/03/29 02:21:22;;;;;;;6.57;4.20;;;;;;;1.26;55.81;101216.84;4984678;28;20031;-57
2021/03/29 02:23:55;;;;;;;7.25;3.38;;;;;;;1.03;55.56;101201.47;4984663;28;20038;-56
2021/03/29 02:26:23;;;;;;;6.40;3.55;;;;;;;1.03;56.03;101221.88;4995462;28;20152;-56
2021/03/29 02:28:49;;;;;;;7.78;3.72;;;;;;;1.07;55.82;101213.53;5003958;28;20101;-56
2021/03/29 02:31:17;;;;;;;6.85;4.03;;;;;;;0.67;56.45;101155.72;5003958;28;20094;-56
2021/03/29 02:33:47;;;;;;;9.27;3.92;;;;;;;1.10;56.41;101238.28;5003906;28;20083;-56
2021/03/29 02:36:13;;;;;;;6.70;4.10;;;;;;;0.96;55.93;101214.75;5004087;28;20052;-56
2021/03/29 02:38:39;;;;;;;6.38;3.42;;;;;;;1.02;55.90;101210.78;5004009;28;20076;-56
2021/03/29 02:41:05;;;;;;;6.78;3.70;;;;;;;0.95;56.25;101221.53;5002627;28;20026;-56
2021/03/29 02:43:32;;;;;;;10.45;4.05;;;;;;;1.11;56.07;101228.16;5003937;28;20037;-56
2021/03/29 02:46:04;;;;;;;7.18;4.18;;;;;;;0.73;56.17;101163.66;5003274;28;20318;-55
2021/03/29 02:48:36;;;;;;;10.23;4.45;;;;;;;1.02;56.26;101217.56;5003757;28;20026;-56
2021/03/29 02:51:05;;;;;;;5.82;3.55;;;;;;;0.61;55.69;101155.47;5003485;28;20093;-55
2021/03/29 02:53:36;;;;;;;6.07;3.05;;;;;;;0.83;55.89;101175.13;5003733;28;20141;-55
2021/03/29 02:56:13;;;;;;;8.00;4.10;;;;;;;1.06;55.28;101231.34;5003759;28;20050;-55
2021/03/29 02:58:43;;;;;;;5.68;3.33;;;;;;;0.88;56.16;101213.56;5003811;28;20026;-56
2021/03/29 03:01:12;;;;;;;8.07;4.30;;;;;;;0.86;55.94;101247.50;5003526;28;20097;-57
2021/03/29 03:03:41;;;;;;;8.52;4.05;;;;;;;1.03;55.03;101260.13;4993152;28;20204;-56
2021/03/29 03:06:07;;;;;;;7.70;3.80;;;;;;;0.92;55.99;101228.19;4999238;28;20034;-57
2021/03/29 03:08:35;;;;;;;7.35;3.53;;;;;;;1.02;55.33;101232.88;4987292;28;20032;-57
2021/03/29 03:11:01;;;;;;;12.00;4.05;;;;;;;1.13;55.61;101241.84;4997021;28;20026;-56
2021/03/29 03:13:28;;;;;;;10.23;3.80;;;;;;;1.02;54.99;101237.97;5000349;28;20034;-57
2021/03/29 03:15:53;;;;;;;8.30;3.67;;;;;;;1.07;55.39;101251.81;4997915;28;20034;-56
2021/03/29 03:18:19;;;;;;;10.30;4.28;;;;;;;1.07;56.17;101246.69;5007792;28;20026;-56
2021/03/29 03:20:46;;;;;;;8.70;3.95;;;;;;;0.99;55.52;101250.59;5007354;28;20029;-56
2021/03/29 03:23:17;;;;;;;11.13;3.53;;;;;;;0.68;55.84;101194.06;4989634;28;20093;-56
2021/03/29 03:25:48;;;;;;;12.30;4.32;;;;;;;1.07;55.74;101277.31;5007225;28;20065;-55
2021/03/29 03:28:17;;;;;;;12.57;4.50;;;;;;;1.09;55.36;101265.47;5007271;28;20026;-55
2021/03/29 03:30:49;;;;;;;12.85;4.07;;;;;;;0.56;56.40;101190.97;5006562;28;20092;-59
2021/03/29 03:33:16;;;;;;;8.55;4.25;;;;;;;1.17;55.83;101259.03;5007282;28;20022;-56
2021/03/29 03:35:43;;;;;;;8.32;3.70;;;;;;;1.10;55.48;101266.34;5002361;28;20038;-56
2021/03/29 03:38:24;;;;;;;11.48;4.15;;;;;;;0.96;55.58;101261.53;4998990;28;20080;-56
2021/03/29 03:41:00;;;;;;;10.18;4.03;;;;;;;0.88;56.05;101259.47;5007310;28;20039;-57
2021/03/29 03:43:30;;;;;;;11.13;4.18;;;;;;;0.96;55.67;101278.53;5007202;28;20076;-56
2021/03/29 03:46:02;;;;;;;12.65;4.38;;;;;;;0.65;55.58;101196.44;4993150;28;20031;-56
2021/03/29 03:48:30;;;;;;;13.05;4.07;;;;;;;1.08;56.16;101253.53;4993790;28;20038;-57
2021/03/29 03:50:57;;;;;;;9.00;4.53;;;;;;;1.06;55.81;101262.81;4995072;28;20027;-56
2021/03/29 03:53:27;;;;;;;11.52;4.10;;;;;;;0.84;55.67;101232.94;4968326;28;20034;-56
2021/03/29 03:55:58;;;;;;;9.15;4.80;;;;;;;1.10;55.57;101286.75;5002662;28;20046;-57
2021/03/29 03:58:25;;;;;;;9.82;4.47;;;;;;;0.97;55.92;101245.44;5007018;28;20026;-56
2021/03/29 04:00:51;;;;;;;16.02;4.88;;;;;;;1.14;54.80;101279.31;5007006;28;20022;-57
2021/03/29 04:03:17;;;;;;;10.32;4.70;;;;;;;1.16;54.59;101277.69;4994627;28;20026;-57
2021/03/29 04:05:44;;;;;;;15.48;4.90;;;;;;;1.31;54.64;101281.69;4995227;28;20089;-56
2021/03/29 04:08:11;;;;;;;12.93;4.68;;;;;;;1.24;54.85;101275.47;5003970;28;20311;-57
2021/03/29 04:13:08;;;;;;;17.50;4.60;;;;;;;1.31;54.58;101279.16;4987116;28;20031;-57
2021/03/29 04:15:34;;;;;;;16.52;5.53;;;;;;;1.38;53.92;101284.59;4969762;28;20319;-56
2021/03/29 04:18:00;;;;;;;12.60;4.85;;;;;;;1.39;53.67;101290.56;4994405;28;20049;-56
2021/03/29 04:20:26;;;;;;;9.52;4.15;;;;;;;1.38;54.49;101281.16;5004429;28;20125;-56
2021/03/29 04:22:52;;;;;;;8.65;4.53;;;;;;;1.42;53.34;101290.69;4986144;28;20037;-56
2021/03/29 04:25:18;;;;;;;10.75;3.90;;;;;;;1.44;53.04;101286.53;5000670;28;20018;-57
2021/03/29 04:27:43;;;;;;;14.15;4.97;;;;;;;1.63;52.98;101289.84;5006305;28;20026;-57
2021/03/29 04:30:11;;;;;;;6.32;4.20;;;;;;;1.20;53.07;101233.63;5001740;28;20015;-57
2021/03/29 04:32:38;;;;;;;12.05;4.60;;;;;;;1.68;52.46;101298.53;4998992;28;20381;-56
2021/03/29 04:35:05;;;;;;;18.77;5.20;;;;;;;1.75;52.11;101304.78;5003621;28;20220;-56
2021/03/29 04:37:31;;;;;;;14.93;5.18;;;;;;;1.92;52.80;101308.03;4990880;28;20098;-57
2021/03/29 04:39:57;;;;;;;14.55;4.57;;;;;;;1.98;51.82;101309.16;4988689;28;20029;-57
2021/03/29 04:42:23;;;;;;;12.98;4.82;;;;;;;1.99;52.00;101308.31;5005896;28;20061;-57
2021/03/29 04:44:49;;;;;;;18.60;4.90;;;;;;;2.16;52.16;101308.97;5003750;28;20026;-57
2021/03/29 04:47:14;;;;;;;18.08;4.78;;;;;;;2.20;51.16;101300.63;4998970;28;20022;-56
2021/03/29 04:49:41;;;;;;;11.20;4.50;;;;;;;2.31;50.85;101315.50;4993502;28;20022;-57
2021/03/29 04:52:08;;;;;;;16.05;4.90;;;;;;;2.38;50.93;101302.13;4986086;28;20045;-56
2021/03/29 04:54:34;;;;;;;12.25;4.18;;;;;;;2.37;50.12;101302.97;4989946;28;20030;-56
2021/03/29 04:57:00;;;;;;;12.95;3.95;;;;;;;2.29;49.93;101289.03;4993839;28;20026;-57
2021/03/29 04:59:26;;;;;;;25.30;5.40;;;;;;;2.39;50.23;101301.34;4989971;28;20419;-57
2021/03/29 05:01:52;;;;;;;10.05;4.68;;;;;;;2.34;49.98;101302.88;4992335;28;20041;-55
2021/03/29 05:04:19;;;;;;;14.75;4.80;;;;;;;2.50;49.19;101311.97;4994333;28;20034;-55
2021/03/29 05:06:45;;;;;;;14.27;3.92;;;;;;;2.44;49.12;101314.28;4995172;28;20095;-57
2021/03/29 05:09:10;;;;;;;11.50;4.22;;;;;;;2.72;49.29;101305.97;4987721;28;20036;-57
2021/03/29 05:11:50;;;;;;;7.82;4.00;;;;;;;2.59;48.05;101310.66;4989123;28;20319;-56
2021/03/29 05:14:16;;;;;;;14.57;4.20;;;;;;;2.70;47.50;101312.72;4985868;28;20081;-56
2021/03/29 05:16:43;;;;;;;8.52;3.55;;;;;;;2.79;47.18;101313.06;4999965;28;20026;-56
2021/03/29 05:19:10;;;;;;;9.52;3.97;;;;;;;2.81;46.07;101316.56;5005347;28;20361;-58
2021/03/29 05:21:36;;;;;;;12.43;3.50;;;;;;;2.81;46.30;101308.88;4996552;28;20026;-58
2021/03/29 05:24:03;;;;;;;8.85;3.47;;;;;;;2.85;46.11;101320.97;4984397;28;20045;-58
2021/03/29 05:26:29;;;;;;;12.77;3.60;;;;;;;2.89;45.94;101321.94;4984942;28;20069;-57
2021/03/29 05:28:55;;;;;;;10.15;2.95;;;;;;;2.69;45.21;101259.81;4987556;28;20025;-57
2021/03/29 05:31:21;;;;;;;11.55;3.40;;;;;;;3.21;45.98;101327.38;5000062;28;20034;-58
2021/03/29 05:33:48;;;;;;;14.55;3.22;;;;;;;3.38;46.12;101330.53;4985667;28;20046;-56
2021/03/29 05:36:14;;;;;;;23.95;4.43;;;;;;;3.39;45.55;101334.78;4985292;28;20038;-58
2021/03/29 05:38:42;;;;;;;9.80;3.33;;;;;;;3.43;44.35;101322.19;4985274;28;20031;-58
2021/03/29 05:41:12;;;;;;;9.48;3.00;;;;;;;3.58;43.69;101334.63;4986537;28;20042;-57
2021/03/29 05:43:43;;;;;;;8.00;2.83;;;;;;;3.00;44.08;101278.84;4994053;28;20189;-58
2021/03/29 05:46:09;;;;;;;17.75;3.55;;;;;;;3.49;44.80;101341.97;4989486;28;20022;-57
2021/03/29 05:48:36;;;;;;;16.17;3.92;;;;;;;3.60;45.25;101343.22;4990324;28;20089;-57
2021/03/29 05:51:04;;;;;;;15.30;3.92;;;;;;;3.87;44.28;101347.53;4985247;28;20039;-56
2021/03/29 05:53:30;;;;;;;18.90;3.78;;;;;;;3.78;44.57;101353.22;4987950;28;20030;-56
2021/03/29 05:55:59;;;;;;;19.83;4.00;;;;;;;3.91;42.94;101287.84;5030314;28;20037;-55
2021/03/29 06:00:53;;;;;;;18.42;3.85;;;;;;;4.65;40.61;101341.41;5043981;28;20033;-56
2021/03/29 06:03:26;;;;;;;8.70;3.45;;;;;;;4.54;39.73;101345.34;5026187;28;20079;-56
2021/03/29 06:05:56;;;;;;;7.88;3.33;;;;;;;4.61;40.39;101283.13;5043707;28;20082;-56
2021/03/29 06:08:22;;;;;;;7.65;2.95;;;;;;;5.12;38.75;101346.16;5038989;28;20333;-56
2021/03/29 06:10:54;;;;;;;4.07;2.92;;;;;;;4.91;39.34;101355.84;5029021;28;20052;-56
2021/03/29 06:13:31;;;;;;;9.13;3.05;;;;;;;4.97;37.89;101296.97;5043402;28;20269;-56
2021/03/29 06:16:15;;;;;;;12.98;5.50;;;;;;;6.05;36.96;101359.75;5043271;28;20206;-56
2021/03/29 06:18:51;;;;;;;7.43;3.00;;;;;;;5.62;36.44;101347.50;5043376;28;20092;-56
2021/03/29 06:21:17;;;;;;;8.68;3.30;;;;;;;5.76;36.88;101363.25;5043425;28;20370;-55
2021/03/29 06:23:58;;;;;;;11.68;3.63;;;;;;;5.83;35.81;101358.31;5038167;28;20036;-55
2021/03/29 06:26:32;;;;;;;6.10;2.88;;;;;;;6.10;35.38;101362.44;5017581;28;20076;-57
2021/03/29 06:28:59;;;;;;;5.70;2.80;;;;;;;5.94;34.77;101350.00;5015210;28;20021;-55
2021/03/29 06:31:33;;;;;;;5.88;3.20;;;;;;;6.95;33.43;101346.28;5036119;28;20084;-56
2021/03/29 06:34:01;;;;;;;11.20;3.33;;;;;;;6.41;34.21;101364.84;5023777;28;20033;-57
2021/03/29 06:36:34;;;;;;;21.88;3.70;;;;;;;7.88;35.33;101356.63;5023586;28;20037;-56
2021/03/29 06:39:17;;;;;;;7.43;3.05;;;;;;;7.32;32.82;101365.03;5023666;28;20029;-56
2021/03/29 06:41:54;;;;;;;6.05;3.22;;;;;;;7.30;31.97;101365.88;5023763;28;20072;-56
2021/03/29 06:44:34;;;;;;;14.93;4.15;;;;;;;9.06;30.82;101361.75;5023767;28;20057;-56
2021/03/29 06:47:07;;;;;;;7.43;3.17;;;;;;;8.71;29.44;101367.34;5023484;28;20040;-57
2021/03/29 06:49:42;;;;;;;7.20;3.28;;;;;;;8.67;29.11;101303.59;5023780;28;20028;-57
2021/03/29 06:52:30;;;;;;;7.50;3.58;;;;;;;8.95;29.38;101359.06;5023630;28;20200;-57
2021/03/29 06:55:17;;;;;;;9.35;4.65;;;;;;;10.83;29.88;101362.41;5011803;28;20046;-57
2021/03/29 06:57:58;;;;;;;10.13;3.78;;;;;;;9.63;28.94;101364.09;4991512;28;20046;-57
2021/03/29 07:00:34;;;;;;;6.85;3.75;;;;;;;8.70;29.00;101380.25;5000759;28;20645;-56
2021/03/29 07:03:06;;;;;;;14.48;4.00;;;;;;;10.14;29.72;101361.94;4998105;28;20211;-57
2021/03/29 07:05:32;;;;;;;13.95;3.60;;;;;;;8.56;29.87;101378.31;5002619;28;20250;-57
2021/03/29 07:08:04;;;;;;;6.30;3.50;;;;;;;7.25;32.33;101332.28;4998294;28;20239;-56
2021/03/29 07:10:30;;;;;;;13.25;3.70;;;;;;;7.99;31.66;101379.13;4995342;28;20079;-56
2021/03/29 07:12:57;;;;;;;12.32;3.47;;;;;;;8.67;31.08;101356.97;4993302;28;20040;-57
2021/03/29 07:15:25;;;;;;;7.57;3.22;;;;;;;8.29;30.30;101373.59;4999337;28;20030;-56
2021/03/29 07:17:51;;;;;;;11.50;3.28;;;;;;;7.92;31.03;101379.03;5001143;28;20034;-56
2021/03/29 07:20:26;;;;;;;9.13;3.38;;;;;;;8.92;29.07;101332.28;5003155;28;20026;-56
2021/03/29 07:22:54;;;;;;;9.07;3.00;;;;;;;8.08;30.17;101385.31;4994276;28;20098;-56
2021/03/29 07:25:28;;;;;;;5.93;2.88;;;;;;;8.83;28.72;101381.28;4998553;28;20034;-56
2021/03/29 07:27:55;;;;;;;7.32;2.55;;;;;;;9.16;28.68;101378.25;5003214;28;20327;-57
2021/03/29 07:30:49;;;;;;;12.27;3.45;;;;;;;9.58;28.96;101352.84;5003388;28;20311;-56
2021/03/29 07:33:17;;;;;;;14.18;2.80;;;;;;;9.73;27.11;101388.34;4983937;28;20117;-56
2021/03/29 07:35:47;;;;;;;8.20;2.70;;;;;;;8.43;27.84;101327.34;4993448;28;20027;-57
2021/03/29 07:38:13;;;;;;;9.88;2.88;;;;;;;8.93;27.80;101383.13;5002426;28;20054;-57
2021/03/29 07:40:42;;;;;;;6.55;2.00;;;;;;;8.83;25.82;101337.38;4999619;28;20065;-57
2021/03/29 07:43:12;;;;;;;12.80;2.50;;;;;;;9.50;26.95;101376.94;4995541;28;20031;-57
2021/03/29 07:46:02;;;;;;;10.35;2.42;;;;;;;9.63;26.44;101335.63;5000098;28;20061;-56
2021/03/29 07:48:43;;;;;;;10.07;2.47;;;;;;;9.30;25.32;101332.72;4993572;28;20223;-57
2021/03/29 07:51:10;;;;;;;7.85;2.25;;;;;;;9.58;26.05;101327.00;4985989;28;20077;-56
2021/03/29 07:53:41;;;;;;;10.63;4.68;;;;;;;8.95;26.39;101343.56;4998318;28;20319;-57
2021/03/29 07:56:08;;;;;;;8.17;2.07;;;;;;;8.63;27.35;101384.44;5019513;28;20042;-56
2021/03/29 07:58:44;;;;;;;5.97;2.15;;;;;;;9.70;26.72;101375.38;5011990;28;20045;-57
2021/03/29 08:01:12;;;;;;;6.97;2.50;;;;;;;9.12;25.55;101369.59;5020381;28;20036;-56
2021/03/29 08:03:41;;;;;;;8.50;2.38;;;;;;;8.33;27.34;101333.22;5025981;28;20030;-57
2021/03/29 08:06:37;;;;;;;7.90;2.25;;;;;;;9.77;25.11;101385.78;5010013;28;20037;-57
2021/03/29 08:09:05;;;;;;;8.88;2.10;;;;;;;10.24;26.45;101378.44;5010850;28;20044;-57
2021/03/29 08:11:50;;;;;;;17.35;3.55;;;;;;;9.24;27.54;101392.13;5016117;28;20082;-56
2021/03/29 08:14:27;;;;;;;8.13;2.20;;;;;;;9.50;26.01;101376.03;5020064;28;20074;-56
2021/03/29 08:16:53;;;;;;;3.90;2.10;;;;;;;10.04;25.71;101373.94;5013896;28;20041;-56
2021/03/29 08:19:21;;;;;;;6.63;2.10;;;;;;;9.04;25.60;101327.28;5016952;28;20210;-57
2021/03/29 08:21:51;;;;;;;4.78;2.08;;;;;;;9.23;26.49;101382.63;5014245;28;20037;-56
2021/03/29 08:24:32;;;;;;;9.05;2.40;;;;;;;10.64;26.34;101383.91;5001706;28;20034;-57
2021/03/29 08:27:01;;;;;;;10.52;2.50;;;;;;;10.23;25.97;101389.63;5015531;28;20038;-56
2021/03/29 08:29:47;;;;;;;4.13;1.50;;;;;;;9.42;25.08;101391.47;5021459;28;20037;-57
2021/03/29 08:32:33;;;;;;;5.00;1.88;;;;;;;9.36;26.38;101341.41;5025352;28;20057;-57
2021/03/29 08:35:00;;;;;;;7.78;2.15;;;;;;;9.39;26.07;101408.66;5025492;28;20222;-57
2021/03/29 08:37:31;;;;;;;4.40;1.48;;;;;;;9.12;25.49;101392.84;5025697;28;20311;-57
2021/03/29 08:39:59;;;;;;;5.85;1.50;;;;;;;8.15;25.56;101403.47;5025347;28;20137;-58
2021/03/29 08:42:35;;;;;;;4.10;1.40;;;;;;;8.09;26.16;101407.72;5025382;28;20064;-57
2021/03/29 08:45:04;;;;;;;4.38;1.42;;;;;;;8.70;24.58;101381.09;5017288;28;20044;-58
2021/03/29 08:47:31;;;;;;;7.93;1.92;;;;;;;9.28;25.99;101398.22;5025455;28;20046;-57
2021/03/29 08:50:01;;;;;;;6.50;1.90;;;;;;;9.40;25.76;101346.63;5022121;28;20036;-56
2021/03/29 08:52:43;;;;;;;9.85;2.40;;;;;;;9.45;24.64;101398.41;5009631;28;20030;-57
2021/03/29 08:55:11;;;;;;;6.90;2.00;;;;;;;9.31;26.28;101412.03;5005415;28;20326;-57
2021/03/29 08:57:38;;;;;;;5.75;1.50;;;;;;;8.79;25.54;101412.25;5005777;28;20030;-57
2021/03/29 09:00:13;;;;;;;3.25;1.33;;;;;;;8.80;26.21;101411.38;5005647;28;20101;-58
2021/03/29 09:02:39;;;;;;;2.90;2.00;;;;;;;8.94;25.20;101410.72;5005605;28;20026;-57
2021/03/29 09:05:07;;;;;;;4.43;1.73;;;;;;;8.33;25.91;101415.81;5005618;28;20349;-57
2021/03/29 09:07:43;;;;;;;5.93;1.80;;;;;;;8.87;25.51;101389.09;5005618;28;20318;-57
2021/03/29 09:10:15;;;;;;;8.23;2.78;;;;;;;9.40;28.21;101410.41;5002365;28;20042;-56
2021/03/29 09:12:42;;;;;;;10.43;2.38;;;;;;;9.32;26.17;101418.94;4954793;28;20113;-57
2021/03/29 09:15:18;;;;;;;3.17;1.70;;;;;;;8.89;26.05;101412.34;4987287;28;20109;-56
2021/03/29 09:18:13;;;;;;;4.32;1.75;;;;;;;8.95;26.69;101396.94;5005047;28;20038;-57
2021/03/29 09:20:42;;;;;;;3.70;1.90;;;;;;;8.76;25.71;101370.00;4996464;28;20064;-57
2021/03/29 09:23:13;;;;;;;2.53;1.50;;;;;;;8.09;25.92;101417.16;5005219;28;20037;-57
2021/03/29 09:25:45;;;;;;;3.88;1.95;;;;;;;8.32;25.09;101357.28;5004919;28;20227;-57
2021/03/29 09:30:56;;;;;;;3.15;1.70;;;;;;;7.36;26.81;101359.13;4988044;28;20250;-57
2021/03/29 09:33:22;;;;;;;5.20;1.70;;;;;;;7.53;26.66;101426.47;5004990;28;20140;-57
2021/03/29 09:35:50;;;;;;;6.90;1.67;;;;;;;7.56;25.58;101356.06;5004779;28;20033;-57
2021/03/29 09:38:39;;;;;;;2.35;1.30;;;;;;;7.53;25.10;101358.56;5004438;28;20023;-57
2021/03/29 09:41:14;;;;;;;2.30;1.40;;;;;;;8.07;26.66;101413.69;4987607;28;20026;-57
2021/03/29 09:43:47;;;;;;;4.43;1.42;;;;;;;7.75;25.65;101414.84;5004745;28;20323;-57
2021/03/29 09:46:14;;;;;;;3.65;1.60;;;;;;;6.86;27.16;101419.06;5004521;28;20219;-57
2021/03/29 09:48:40;;;;;;;4.88;1.60;;;;;;;6.68;27.68;101419.56;5004158;28;20026;-59
2021/03/29 09:51:22;;;;;;;6.93;1.75;;;;;;;7.47;27.88;101416.03;5004664;28;20026;-56
2021/03/29 09:53:49;;;;;;;8.10;2.25;;;;;;;7.64;28.01;101418.06;5004357;28;20037;-57
2021/03/29 09:56:33;;;;;;;5.43;1.85;;;;;;;7.40;28.42;101402.16;5016560;28;20033;-56
2021/03/29 09:59:00;;;;;;;11.52;2.67;;;;;;;7.77;28.37;101415.75;5026076;28;20025;-57
2021/03/29 10:01:27;;;;;;;12.25;2.83;;;;;;;6.77;29.50;101356.19;5024317;28;20089;-56
2021/03/29 10:04:14;;;;;;;7.88;2.22;;;;;;;7.45;29.13;101409.13;5026410;28;20044;-56
2021/03/29 10:06:56;;;;;;;3.92;2.13;;;;;;;6.97;28.96;101413.28;5030118;28;20018;-56
2021/03/29 10:09:29;;;;;;;;;;;;;;;7.27;29.42;101415.66;5025678;28;20101;-56
2021/03/29 10:11:55;;;;;;;3.03;2.10;;;;;;;7.62;28.85;101422.31;5040323;28;19905;-56
2021/03/29 10:14:42;;;;;;;7.82;2.20;;;;;;;7.66;28.57;101416.41;5032838;28;20033;-57
2021/03/29 10:17:16;;;;;;;7.30;2.40;;;;;;;7.66;28.96;101413.81;5030668;28;20033;-57
2021/03/29 10:19:42;;;;;;;5.20;2.15;;;;;;;7.36;29.30;101418.41;5032220;28;20104;-57
2021/03/29 10:22:19;;;;;;;9.10;2.60;;;;;;;7.51;29.76;101410.09;5027130;28;20033;-57
2021/03/29 10:25:04;;;;;;;9.00;2.53;;;;;;;7.54;30.06;101422.16;5033675;28;20030;-56
2021/03/29 10:27:50;;;;;;;5.07;2.47;;;;;;;7.31;29.72;101434.59;5043240;28;20037;-56
2021/03/29 10:30:19;;;;;;;7.53;2.67;;;;;;;7.81;30.01;101416.69;5026827;28;20314;-57
2021/03/29 10:32:56;;;;;;;7.00;2.30;;;;;;;7.00;29.69;101359.28;5039857;28;20025;-57
2021/03/29 10:35:24;;;;;;;9.63;3.20;;;;;;;7.85;30.16;101403.00;5024014;28;20318;-56
2021/03/29 10:37:50;;;;;;;7.05;2.53;;;;;;;7.93;29.72;101416.03;5026962;28;20034;-56
2021/03/29 10:40:17;;;;;;;4.50;2.30;;;;;;;7.89;29.02;101427.13;5028657;28;20030;-56
2021/03/29 10:42:44;;;;;;;5.97;2.60;;;;;;;8.04;29.52;101419.66;5013408;28;20333;-56
2021/03/29 10:45:15;;;;;;;4.60;2.28;;;;;;;7.75;28.89;101398.50;5031856;28;20084;-56
2021/03/29 10:47:41;;;;;;;3.90;2.22;;;;;;;8.39;29.96;101432.25;5023968;28;20040;-57
2021/03/29 10:50:10;;;;;;;5.85;2.63;;;;;;;7.28;29.10;101368.41;5027681;28;20042;-57
2021/03/29 10:52:38;;;;;;;7.55;2.92;;;;;;;8.01;30.06;101421.28;5027873;28;20030;-56
2021/03/29 10:55:06;;;;;;;6.13;2.80;;;;;;;8.11;30.16;101426.66;5034394;28;20067;-56
2021/03/29 10:57:34;;;;;;;4.40;2.50;;;;;;;8.33;29.23;101423.56;5024518;28;20033;-56
2021/03/29 11:00:01;;;;;;;3.53;2.88;;;;;;;8.59;29.89;101416.25;5016249;28;20206;-57
2021/03/29 11:02:28;;;;;;;8.75;2.55;;;;;;;8.26;28.75;101418.28;5020949;28;20049;-57
2021/03/29 11:04:54;;;;;;;7.38;2.47;;;;;;;7.72;29.90;101414.78;5042176;28;20087;-56
2021/03/29 11:07:20;;;;;;;7.57;3.33;;;;;;;8.00;30.47;101415.28;5029402;28;20038;-57
2021/03/29 11:09:46;;;;;;;8.15;2.97;;;;;;;7.90;29.76;101418.56;5025253;28;20075;-57
2021/03/29 11:12:20;;;;;;;6.85;2.85;;;;;;;8.13;29.40;101401.72;5032242;28;20026;-56
2021/03/29 11:14:47;;;;;;;5.53;2.90;;;;;;;7.75;30.43;101412.28;5016240;28;20074;-57
2021/03/29 11:17:13;;;;;;;5.65;2.60;;;;;;;8.11;29.95;101420.63;5024544;28;20037;-56
2021/03/29 11:19:38;;;;;;;5.28;2.88;;;;;;;8.29;30.69;101413.19;5015567;28;20088;-56
2021/03/29 11:22:05;;;;;;;4.25;2.60;;;;;;;8.42;31.55;101413.38;5033988;28;20070;-56
2021/03/29 11:24:31;;;;;;;7.38;2.55;;;;;;;8.57;29.81;101420.53;5031198;28;20029;-57
2021/03/29 11:26:57;;;;;;;2.88;2.20;;;;;;;8.71;28.91;101416.44;5034012;28;20036;-56
2021/03/29 11:29:23;;;;;;;7.78;2.88;;;;;;;8.41;29.13;101415.09;5035612;28;20210;-57
2021/03/29 11:31:48;;;;;;;5.43;2.72;;;;;;;8.35;28.91;101420.16;5033785;28;20336;-56
2021/03/29 11:34:14;;;;;;;6.43;2.60;;;;;;;8.23;29.53;101419.97;5046365;28;20021;-56
2021/03/29 11:36:40;;;;;;;9.75;3.05;;;;;;;8.64;29.27;101422.34;5036261;28;20021;-56
2021/03/29 11:39:09;;;;;;;9.45;3.05;;;;;;;8.20;29.30;101360.56;5039633;28;20091;-56
2021/03/29 11:41:36;;;;;;;5.50;2.90;;;;;;;8.83;29.27;101407.13;5037971;28;20109;-57
2021/03/29 11:44:03;;;;;;;10.02;3.10;;;;;;;8.98;30.42;101402.16;5030696;28;20053;-56
2021/03/29 11:46:29;;;;;;;4.28;2.22;;;;;;;8.91;29.14;101406.38;5027882;28;20104;-55
2021/03/29 11:48:55;;;;;;;5.00;2.20;;;;;;;8.98;28.11;101410.78;5025450;28;20381;-56
2021/03/29 11:51:21;;;;;;;3.80;2.20;;;;;;;9.18;28.24;101404.09;5027117;28;20088;-56
2021/03/29 11:53:47;;;;;;;4.78;2.03;;;;;;;9.17;27.96;101399.81;5030934;28;20026;-55